Weather observations for the past three days for
Grangeville - Idaho County Airport
Metric (Imperial)
Date Time (pdt) Wind (kph) Vis. (km) Weather Sky Cond. Temperature (ºC) Relative Humidity Wind Chill (°C) Heat Index (°C) Pressure Precipitation (cm)
Air Dwpt 6 hour altimeter (cm) sea level (mb) 1 hr 3 hr 6 hr
Max. Min.
09 12:55 Calm 16.09 Fair CLR 17 2 37% 76.58 0.0
09 12:35 Calm 16.09 Fair CLR 17 1 34% 76.61 0.0
09 12:15 W 7 16.09 Fair CLR 16 1 36% 76.61 0.0
09 11:55 N 9 16.09 Fair CLR 16 2 39% 76.61 0.0
09 11:35 NW 9 16.09 Fair CLR 16 3 42% 76.63 0.0
09 11:15 Calm 16.09 Fair CLR 16 1 36% 76.63 0.0
09 10:50 N 7 16.09 Fair CLR 15 2 42% 76.63 0.0
09 10:35 N 7 16.09 Fair CLR 15 3 45% 76.61 0.0
09 10:15 W 7 16.09 Fair CLR 15 3 45% 76.63 0.0
09 09:55 W 6 16.09 Fair CLR 15 3 45% 76.63 0.0
09 09:35 Calm 16.09 Fair CLR 14 3 48% 76.66 0.0
09 09:15 NE 9 16.09 Fair CLR 13 5 59% 76.63 0.0
09 08:55 E 9 16.09 Fair CLR 13 3 51% 76.63 0.0
09 08:35 Calm 16.09 Fair CLR 12 2 51% 76.63 0.0
09 08:15 Calm 16.09 Fair CLR 12 3 54% 76.63 0.0
09 07:55 NE 6 16.09 Fair CLR 12 3 54% 76.63 0.0
09 07:30 E 7 16.09 Fair CLR 10 2 58% 9 76.61 0.0
09 07:15 E 11 16.09 Fair CLR 10 2 58% 9 76.61 0.0
09 06:55 SE 11 16.09 Fair CLR 8 2 66% 6 76.61 0.0
09 06:35 SE 13 16.09 Fair CLR 7 1 66% 5 76.61 0.0
09 06:15 E 11 16.09 Fair CLR 6 1 71% 4 76.58 0.0
09 05:55 SW 7 16.09 Fair CLR 7 1 66% 6 76.56 0.0
09 05:35 SW 13 16.09 Fair CLR 6 0 66% 4 76.53 0.0
09 05:15 SW 11 16.09 Fair CLR 5 0 70% 3 76.53 0.0
09 04:55 SW 7 16.09 Fair CLR 5 0 70% 4 76.5 0.0
09 04:35 SW 11 16.09 Fair CLR 6 0 66% 4 76.5 0.0
09 04:15 SW 13 16.09 Fair CLR 7 0 61% 5 76.5 0.0
09 03:55 SW 13 16.09 Fair CLR 7 0 61% 5 76.48 0.0
09 03:35 SW 9 16.09 Fair CLR 6 0 66% 4 76.48 0.0
09 03:15 W 6 16.09 Fair CLR 6 0 66% 76.48 0.0
09 02:55 Calm 16.09 Fair CLR 6 0 66% 76.48 0.0
09 02:35 Calm 16.09 Fair CLR 7 0 61% 76.45 0.0
09 02:15 SW 11 16.09 Fair CLR 7 0 61% 5 76.45 0.0
09 01:55 SW 15 16.09 Fair CLR 8 0 57% 6 76.45 0.0
09 01:35 SW 13 16.09 Partly Cloudy SCT090 9 0 54% 7 76.45 0.0
09 00:55 SW 13 16.09 Fair CLR 7 0 61% 5 76.43 0.0
09 00:35 W 7 16.09 Partly Cloudy SCT100 7 0 61% 6 76.43 0.0
09 00:15 SW 9 16.09 Partly Cloudy SCT100 8 0 57% 7 76.4 0.0
08 23:55 SW 13 16.09 Fair CLR 7 0 61% 5 76.4 0.0
08 23:35 S 11 16.09 Fair CLR 7 0 61% 5 76.38 0.0
08 23:15 S 7 16.09 Fair CLR 7 0 61% 6 76.38 0.0
08 22:50 S 13 16.09 Fair CLR 6 2 76% 4 76.38 0.0
08 22:35 S 7 16.09 Fair CLR 7 1 66% 6 76.38 0.0
08 22:15 S 6 16.09 Fair CLR 6 2 76% 76.38 0.0
08 21:55 S 7 16.09 Fair CLR 6 2 76% 5 76.35 0.0
08 21:35 Calm 16.09 Fair CLR 8 2 66% 76.35 0.0
08 21:10 S 7 16.09 Fair CLR 7 3 76% 6 76.33 0.0
08 20:55 S 7 16.09 Fair CLR 10 3 62% 9 76.33 0.0
08 20:35 Calm 16.09 Partly Cloudy SCT110 11 3 58% 76.3 0.0
08 20:15 SE 6 16.09 Partly Cloudy SCT110 13 2 47% 76.28 0.0
08 19:55 E 6 16.09 Partly Cloudy SCT100 13 3 51% 76.25 0.0
08 19:35 Calm 16.09 Overcast OVC100 15 4 48% 76.25 0.0
08 19:15 NE 6 16.09 Partly Cloudy SCT110 15 5 51% 76.25 0.0
08 18:50 N 15 16.09 Fair CLR 16 4 45% 76.23 0.0
08 18:35 NE 13 16.09 Fair CLR 15 5 51% 76.2 0.0
08 18:15 N 13 16.09 Fair CLR 16 5 48% 76.2 0.0
08 17:35 NW 22 16.09 Fair CLR 19 1 30% 76.2 0.0
08 17:15 W 24 G 31 16.09 Fair CLR 18 0 30% 76.2 0.0
08 16:55 W 20 G 30 16.09 Fair CLR 18 0 30% 76.2 0.0
08 16:35 W 17 16.09 Fair CLR 18 0 30% 76.2 0.0
08 16:15 W 11 16.09 Fair CLR 18 0 30% 76.2 0.0
08 15:55 W 11 16.09 Fair CLR 18 1 32% 76.2 0.0
08 15:15 W 11 16.09 Fair CLR 18 0 30% 76.2 0.0
08 14:55 W 13 16.09 Fair CLR 18 0 30% 76.23 0.0
08 14:35 SW 13 16.09 Fair CLR 19 -1 26% 76.23 0.0
08 14:15 W 17 16.09 Fair CLR 18 -1 28% 76.23 0.0
08 13:55 W 22 16.09 Fair CLR 18 -1 28% 76.23 0.0
08 13:35 W 13 16.09 Fair CLR 18 -1 28% 76.2 0.0
08 13:15 W 17 G 28 16.09 Fair CLR 18 -2 26% 76.23 0.0
08 12:55 W 19 G 26 16.09 Fair CLR 18 -1 28% 76.23 0.0
08 12:35 W 17 16.09 Fair CLR 18 -1 28% 76.23 0.0
08 12:15 W 22 16.09 Fair CLR 17 -3 25% 76.23 0.0
08 11:55 W 20 16.09 Fair CLR 17 -3 25% 76.25 0.0
08 11:35 W 22 16.09 Fair CLR 17 -2 27% 76.25 0.0
08 11:15 SW 22 G 30 16.09 Fair CLR 17 -2 27% 76.25 0.0
08 10:55 SW 24 16.09 Fair CLR 16 -1 31% 76.25 0.0
08 10:35 W 19 16.09 Fair CLR 16 0 34% 76.25 0.0
08 10:15 SW 17 G 28 16.09 Fair CLR 17 -1 30% 76.25 0.0
08 09:55 SW 20 16.09 Fair CLR 17 0 32% 76.25 0.0
08 09:35 W 17 16.09 Fair CLR 17 0 32% 76.23 0.0
08 09:15 SW 19 16.09 Fair CLR 16 0 34% 76.25 0.0
08 08:55 W 6 16.09 Fair CLR 14 6 59% 76.25 0.0
08 08:35 E 6 16.09 Fair CLR 13 6 63% 76.25 0.0
08 08:15 Calm 16.09 Fair CLR 13 7 67% 76.25 0.0
08 07:55 E 7 16.09 Fair CLR 12 7 72% 76.25 0.0
08 07:35 Calm 16.09 Fair CLR 11 6 72% 76.25 0.0
08 07:15 Calm 16.09 Fair CLR 10 6 76% 76.2 0.0
08 06:55 Calm 16.09 Fair CLR 8 5 82% 76.2 0.0
08 06:15 Calm 16.09 Fair CLR 5 1 76% 76.2 0.0
08 05:35 Calm 16.09 Fair CLR 3 1 87% 76.17 0.0
08 05:15 Calm 16.09 Fair CLR 5 1 76% 76.17 0.0
08 04:55 Calm 16.09 Fair CLR 5 2 81% 76.17 0.0
08 04:35 Calm 16.09 Fair CLR 5 2 81% 76.17 0.0
08 04:15 W 6 16.09 Fair CLR 5 2 81% 76.17 0.0
08 03:55 Calm 16.09 Fair CLR 6 3 81% 76.17 0.0
08 03:35 Calm 16.09 Fair CLR 6 3 81% 76.17 0.0
08 03:15 Calm 16.09 Fair CLR 7 3 76% 76.17 0.0
08 02:55 Calm 16.09 Fair CLR 7 4 81% 76.17 0.0
08 02:35 Calm 16.09 Fair CLR 7 4 81% 76.17 0.0
08 02:15 Calm 16.09 Fair CLR 7 4 81% 76.17 0.0
08 01:55 Calm 16.09 Fair CLR 7 4 81% 76.17 0.0
08 01:35 Calm 16.09 Fair CLR 7 4 81% 76.17 0.0
08 01:15 Calm 16.09 Fair CLR 8 5 82% 76.17 0.0
08 00:35 Calm 16.09 Fair CLR 8 5 82% 76.17 0.0
08 00:15 Calm 16.09 Fair CLR 8 5 82% 76.17 0.0
07 23:55 S 6 16.09 Fair CLR 9 5 76% 76.17 0.0
07 23:35 Calm 16.09 Fair CLR 8 5 82% 76.17 0.0
07 23:15 S 7 16.09 Fair CLR 9 5 76% 8 76.17 0.0
07 22:55 S 6 16.09 Fair CLR 9 6 82% 76.17 0.0
07 22:35 S 6 16.09 Fair CLR 10 6 76% 76.17 0.0
07 22:15 Calm 16.09 Fair CLR 11 6 72% 76.2 0.0
07 21:55 S 6 16.09 Fair CLR 11 6 72% 76.17 0.0
07 21:30 Calm 16.09 Fair CLR 10 6 76% 76.17 0.0
07 21:15 Calm 16.09 Fair CLR 11 6 72% 76.17 0.0
07 20:55 Calm 16.09 Fair CLR 12 6 67% 76.17 0.0
07 20:35 Calm 16.09 Fair CLR 14 6 59% 76.17 0.0
07 19:55 N 6 16.09 Fair CLR 15 6 55% 76.12 0.0
07 19:35 N 9 16.09 Fair CLR 15 7 59% 76.12 0.0
07 19:15 N 9 16.09 Fair CLR 17 6 49% 76.12 0.0
07 18:55 N 11 16.09 Fair CLR 17 5 45% 76.12 0.0
07 18:35 N 13 16.09 Fair CLR 18 5 43% 76.12 0.0
07 18:15 N 17 16.09 Fair CLR 18 5 43% 76.12 0.0
07 17:55 N 13 16.09 Fair CLR 19 7 46% 76.12 0.0
07 17:30 N 17 16.09 Fair CLR 20 7 43% 76.12 0.0
07 17:10 N 7 16.09 Fair CLR 20 7 43% 76.1 0.0
07 16:55 N 15 16.09 Fair CLR 20 7 43% 76.1 0.0
07 16:35 N 9 16.09 Fair CLR 20 6 40% 76.1 0.0
07 16:15 N 15 16.09 Fair CLR 20 5 38% 76.1 0.0
07 15:55 W 6 16.09 Fair CLR 21 2 29% 76.1 0.0
07 15:35 W 11 G 26 16.09 Fair CLR 21 2 29% 76.12 0.0
07 15:15 Calm 16.09 Fair CLR 20 2 30% 76.12 0.0
07 14:55 W 11 16.09 Fair CLR 20 2 30% 76.15 0.0
07 14:15 N 7 16.09 Fair CLR 20 4 35% 76.15 0.0
07 13:30 NW 11 16.09 Fair CLR 19 4 37% 76.2 0.0
07 13:15 N 7 16.09 Fair CLR 19 3 35% 76.2 0.0
07 12:35 W 9 16.09 Fair CLR 18 4 40% 76.2 0.0
07 11:55 NW 7 16.09 Fair CLR 18 5 43% 76.23 0.0
07 11:35 Calm 16.09 Fair CLR 17 4 42% 76.2 0.0
07 11:15 N 7 16.09 Fair CLR 17 5 45% 76.25 0.0
07 10:20 N 7 16.09 Fair CLR 16 7 55% 76.25 0.0
07 09:50 NE 7 16.09 Fair CLR 15 6 55% 76.25 0.0
07 09:35 NE 9 16.09 Fair CLR 15 7 59% 76.25 0.0
07 08:55 NE 7 16.09 Fair CLR 14 6 59% 76.28 0.0
07 08:35 Calm 16.09 Fair CLR 15 5 51% 76.28 0.0
07 08:15 W 6 16.09 Fair CLR 14 6 59% 76.28 0.0
07 07:55 Calm 16.09 Fair CLR 13 5 59% 76.25 0.0
07 07:35 W 6 16.09 Fair CLR 13 6 63% 76.25 0.0
07 07:15 Calm 16.09 Fair CLR 12 6 67% 76.25 0.0
07 06:55 Calm 16.09 Fair CLR 11 6 72% 76.2 0.0
07 06:35 Calm 16.09 Fair CLR 11 3 58% 76.2 0.0
07 06:15 Calm 16.09 Fair CLR 8 3 71% 76.17 0.0
07 05:55 Calm 16.09 Fair CLR 7 2 71% 76.17 0.0
07 05:35 Calm 16.09 Fair CLR 7 2 71% 76.15 0.0
07 05:15 Calm 16.09 Fair CLR 10 3 62% 76.15 0.0
07 04:55 S 6 16.09 Fair CLR 7 3 76% 76.15 0.0
07 04:35 Calm 16.09 Fair CLR 8 4 76% 76.15 0.0
07 03:55 E 9 16.09 Fair CLR 8 5 82% 7 76.15 0.0
07 03:35 Calm 16.09 Fair CLR 8 4 76% 76.15 0.0
07 03:15 E 6 16.09 Fair CLR 12 4 58% 76.15 0.0
07 02:55 Calm 16.09 Fair CLR 10 4 67% 76.12 0.0
07 02:35 S 11 16.09 Fair CLR 8 5 82% 6 76.1 0.0
07 02:15 SW 6 16.09 Fair CLR 12 5 63% 76.12 0.0
07 01:55 SW 7 16.09 Fair CLR 12 5 63% 76.12 0.0
07 01:35 Calm 16.09 Fair CLR 13 5 59% 76.1 0.0
07 01:15 NW 6 16.09 Fair CLR 12 5 63% 76.1 0.0
07 00:55 SW 15 16.09 Fair CLR 15 5 51% 76.1 0.0
07 00:35 SW 19 16.09 Fair CLR 15 5 51% 76.1 0.0
07 00:15 SW 11 16.09 Fair CLR 13 5 59% 76.07 0.0
06 23:55 SW 9 16.09 Fair CLR 15 5 51% 76.07 0.0
06 23:35 SW 15 16.09 Partly Cloudy SCT075 15 5 51% 76.07 0.0
06 23:15 SW 19 16.09 Partly Cloudy SCT075 16 5 48% 76.05 0.0
06 22:55 SW 15 16.09 Fair CLR 16 5 48% 76.05 0.0
06 22:35 SW 15 16.09 Fair CLR 15 5 51% 76.07 0.0
06 22:15 SW 15 16.09 Fair CLR 15 6 55% 76.07 0.0
06 21:35 Calm 16.09 Fair CLR 15 9 68% 76.07 0.0
06 21:15 S 6 16.09 Fair CLR 14 10 77% 76.07 0.0
06 21:00 SE 7 16.09 Fair CLR 15 10 72% 76.1 0.0
06 20:15 Calm 16.09 Fair CLR 17 8 56% 76.07 0.0
06 19:55 Calm 16.09 Fair CLR 17 10 64% 76.07 0.0
06 19:35 Calm 16.09 Fair CLR 18 9 56% 76.07 0.0
06 18:55 Calm 16.09 Fair CLR 19 10 56% 76.05 0.0
06 18:35 Calm 16.09 Partly Cloudy SCT080 SCT090 19 11 60% 76.05 0.0
06 18:15 NE 6 16.09 Overcast OVC080 19 10 56% 76.05 0.0
06 17:35 N 9 16.09 Partly Cloudy SCT090 20 10 53% 76.05 0.0
06 17:15 N 11 16.09 Partly Cloudy SCT090 20 10 53% 76.05 0.0
06 17:00 NE 13 16.09 Fair CLR 20 10 53% 76.02 0.0
06 16:30 NE 9 16.09 Partly Cloudy SCT085 20 10 53% 76.02 0.0
06 15:15 N 20 11.27 Mostly Cloudy SCT070 BKN085 BKN110 22 11 50% 76.07 0.0
06 14:55 N 13 16.09 Partly Cloudy SCT085 23 10 44% 76.07 0.0
06 14:15 NW 19 16.09 Fair CLR 23 8 38% 76.1 0.0
06 13:55 W 13 16.09 Fair CLR 22 8 41% 76.12 0.0
06 13:35 W 13 G 30 16.09 Fair CLR 22 8 41% 76.12 0.0
06 13:15 W 9 16.09 Fair CLR 22 7 38% 76.12 0.0
Date Time (pdt) Wind (kph) Vis. (km) Weather Sky Cond. Air Dwpt Max. Min. Relative Humidity Wind Chill (°C) Heat Index (°C) altimeter (cm) sea level (mb) 1 hr 3 hr 6 hr
6 hour
Temperature (ºC) Pressure Precipitation (cm)